createdAt,value
2018-12-13T00:02:25.474Z,3.97
2018-12-13T00:04:56.805Z,4.73
2018-12-13T00:07:31.298Z,5.00
2018-12-13T00:10:02.342Z,4.60
2018-12-13T00:12:36.767Z,4.43
2018-12-13T00:15:07.716Z,4.00
2018-12-13T00:17:38.557Z,3.70
2018-12-13T00:20:11.047Z,4.33
2018-12-13T00:22:48.362Z,3.43
2018-12-13T00:25:24.169Z,3.80
2018-12-13T00:27:55.559Z,3.90
2018-12-13T00:30:26.344Z,3.43
2018-12-13T00:32:56.547Z,3.67
2018-12-13T00:35:26.112Z,4.17
2018-12-13T00:37:56.146Z,6.27
2018-12-13T00:40:26.152Z,5.47
2018-12-13T00:42:57.345Z,5.17
2018-12-13T00:45:27.182Z,5.10
2018-12-13T00:47:57.502Z,5.27
2018-12-13T00:50:27.988Z,5.90
2018-12-13T00:52:58.290Z,5.73
2018-12-13T00:55:28.327Z,5.33
2018-12-13T00:57:59.332Z,5.43
2018-12-13T01:00:29.188Z,4.97
2018-12-13T01:02:59.194Z,4.87
2018-12-13T01:05:29.437Z,5.17
2018-12-13T01:08:00.200Z,4.43
2018-12-13T01:10:29.919Z,4.17
2018-12-13T01:13:03.158Z,3.80
2018-12-13T01:15:36.018Z,4.17
2018-12-13T01:18:07.284Z,4.60
2018-12-13T01:20:36.646Z,4.10
2018-12-13T01:23:06.349Z,3.90
2018-12-13T01:25:36.434Z,3.80
2018-12-13T01:28:06.361Z,4.20
2018-12-13T01:30:36.446Z,3.30
2018-12-13T01:33:07.740Z,3.70
2018-12-13T01:35:37.601Z,3.40
2018-12-13T01:38:06.949Z,3.77
2018-12-13T01:40:36.656Z,2.93
2018-12-13T01:43:07.675Z,3.50
2018-12-13T01:45:37.471Z,3.37
2018-12-13T01:48:06.816Z,3.03
2018-12-13T01:50:37.421Z,3.10
2018-12-13T01:53:07.804Z,3.00
2018-12-13T01:55:39.312Z,3.27
2018-12-13T01:58:10.073Z,3.70
2018-12-13T02:00:42.118Z,3.20
2018-12-13T02:03:11.308Z,3.03
2018-12-13T02:05:40.558Z,3.43
2018-12-13T02:08:10.990Z,3.70
2018-12-13T02:10:41.011Z,3.77
2018-12-13T02:13:10.665Z,3.43
2018-12-13T02:15:41.692Z,3.57
2018-12-13T02:18:11.403Z,3.83
2018-12-13T02:20:43.159Z,71.27
2018-12-13T02:23:13.047Z,9.50
2018-12-13T02:25:42.950Z,6.70
2018-12-13T02:28:12.243Z,4.93
2018-12-13T02:30:42.715Z,4.60
2018-12-13T02:33:12.852Z,3.57
2018-12-13T02:35:43.049Z,3.40
2018-12-13T02:38:13.391Z,3.63
2018-12-13T02:40:43.755Z,3.30
2018-12-13T02:43:14.940Z,4.17
2018-12-13T02:45:44.459Z,4.37
2018-12-13T02:48:14.444Z,3.60
2018-12-13T02:50:43.853Z,2.97
2018-12-13T02:53:12.987Z,2.93
2018-12-13T02:55:43.288Z,3.10
2018-12-13T02:58:12.965Z,3.33
2018-12-13T03:00:42.978Z,3.67
2018-12-13T03:03:12.680Z,3.70
2018-12-13T03:05:42.652Z,3.10
2018-12-13T03:08:12.277Z,3.30
2018-12-13T03:10:41.902Z,3.50
2018-12-13T03:13:11.122Z,4.13
2018-12-13T03:15:41.352Z,3.10
2018-12-13T03:18:11.061Z,3.93
2018-12-13T03:20:40.240Z,5.30
2018-12-13T03:23:09.949Z,5.40
2018-12-13T03:25:39.151Z,6.07
2018-12-13T03:28:09.278Z,6.57
2018-12-13T03:30:39.369Z,6.10
2018-12-13T03:33:08.799Z,5.50
2018-12-13T03:35:38.353Z,5.73
2018-12-13T03:38:08.093Z,5.40
2018-12-13T03:40:37.619Z,5.70
2018-12-13T03:43:07.441Z,5.70
2018-12-13T03:45:36.779Z,6.57
2018-12-13T03:48:06.342Z,6.07
2018-12-13T03:50:35.572Z,6.37
2018-12-13T03:53:05.358Z,4.90
2018-12-13T03:55:35.338Z,4.87
2018-12-13T03:58:06.216Z,5.03
2018-12-13T04:00:35.416Z,3.53
2018-12-13T04:03:05.059Z,2.47
2018-12-13T04:05:37.364Z,3.13
2018-12-13T04:08:07.520Z,4.03
2018-12-13T04:10:36.782Z,3.53
2018-12-13T04:13:13.715Z,5.63
2018-12-13T04:15:43.223Z,6.40
2018-12-13T04:18:13.992Z,14.23
2018-12-13T04:20:44.257Z,10.47
2018-12-13T04:23:13.739Z,13.93
2018-12-13T04:25:44.815Z,12.53
2018-12-13T04:28:15.935Z,9.03
2018-12-13T04:30:48.749Z,6.17
2018-12-13T04:33:19.491Z,4.80
2018-12-13T04:35:49.065Z,2.80
2018-12-13T04:38:19.394Z,2.87
2018-12-13T04:40:49.828Z,1.90
2018-12-13T04:43:19.157Z,1.60
2018-12-13T04:45:48.746Z,1.90
2018-12-13T04:48:19.869Z,4.57
2018-12-13T04:50:49.982Z,4.27
2018-12-13T04:53:21.209Z,3.60
2018-12-13T04:55:52.560Z,3.17
2018-12-13T04:58:23.122Z,2.17
2018-12-13T05:00:54.097Z,1.80
2018-12-13T05:03:24.131Z,2.30
2018-12-13T05:05:53.723Z,2.37
2018-12-13T05:08:24.803Z,2.50
2018-12-13T05:10:58.349Z,2.27
2018-12-13T05:13:30.526Z,3.00
2018-12-13T05:16:02.706Z,3.83
2018-12-13T05:18:33.803Z,3.37
2018-12-13T05:21:03.933Z,3.20
2018-12-13T05:23:34.901Z,3.50
2018-12-13T05:26:05.413Z,4.27
2018-12-13T05:28:39.866Z,4.00
2018-12-13T05:31:10.761Z,4.37
2018-12-13T05:33:45.439Z,4.43
2018-12-13T05:36:17.196Z,4.53
2018-12-13T05:38:48.285Z,4.90
2018-12-13T05:41:19.473Z,4.50
2018-12-13T05:43:55.054Z,3.80
2018-12-13T05:46:31.016Z,3.60
2018-12-13T05:49:04.187Z,8.77
2018-12-13T05:51:35.720Z,13.80
2018-12-13T05:54:07.029Z,15.83
2018-12-13T05:56:38.610Z,19.00
2018-12-13T05:59:11.162Z,18.67
2018-12-13T06:01:43.128Z,24.20
2018-12-13T06:04:16.789Z,11.17
2018-12-13T06:06:50.390Z,7.50
2018-12-13T06:09:22.781Z,3.73
2018-12-13T06:11:56.511Z,3.17
2018-12-13T06:14:32.750Z,3.50
2018-12-13T06:17:01.773Z,3.90
2018-12-13T06:19:30.783Z,5.33
2018-12-13T06:22:00.192Z,5.70
2018-12-13T06:24:29.458Z,6.00
2018-12-13T06:26:58.483Z,6.20
2018-12-13T06:29:28.156Z,6.67
2018-12-13T06:31:59.582Z,7.03
2018-12-13T06:34:30.233Z,7.53
2018-12-13T06:36:59.869Z,9.07
2018-12-13T06:39:29.154Z,9.30
2018-12-13T06:41:58.963Z,9.27
2018-12-13T06:44:28.387Z,10.20
2018-12-13T06:46:58.081Z,10.73
2018-12-13T06:49:27.369Z,9.83
2018-12-13T06:51:56.507Z,10.03
2018-12-13T06:54:25.502Z,9.70
2018-12-13T06:56:54.686Z,10.43
2018-12-13T06:59:23.780Z,9.57
2018-12-13T07:04:19.169Z,10.83
2018-12-13T07:06:48.123Z,10.80
2018-12-13T07:09:17.132Z,12.50
2018-12-13T07:11:46.146Z,12.30
2018-12-13T07:14:15.165Z,12.20
2018-12-13T07:16:44.145Z,12.37
2018-12-13T07:19:13.509Z,13.17
2018-12-13T07:21:42.490Z,14.13
2018-12-13T07:24:11.527Z,12.13
2018-12-13T07:26:40.540Z,12.40
2018-12-13T07:29:09.512Z,12.70
2018-12-13T07:31:38.541Z,8.07
2018-12-13T07:34:07.658Z,13.53
2018-12-13T07:36:36.690Z,12.63
2018-12-13T07:39:09.024Z,12.63
2018-12-13T07:41:38.098Z,14.70
2018-12-13T07:44:07.153Z,15.93
2018-12-13T07:46:36.537Z,15.47
2018-12-13T07:49:05.539Z,12.20
2018-12-13T07:51:34.503Z,13.40
2018-12-13T07:54:03.803Z,14.17
2018-12-13T07:56:35.683Z,15.70
2018-12-13T07:59:04.764Z,15.77
2018-12-13T08:01:33.767Z,15.97
2018-12-13T08:04:02.737Z,14.57
2018-12-13T08:06:31.762Z,13.83
2018-12-13T08:09:00.723Z,15.43
2018-12-13T08:11:29.765Z,16.83
2018-12-13T08:13:58.782Z,14.57
2018-12-13T08:16:27.884Z,16.30
2018-12-13T08:18:56.909Z,16.47
2018-12-13T08:21:25.993Z,15.43
2018-12-13T08:23:54.976Z,15.93
2018-12-13T08:26:23.973Z,14.47
2018-12-13T08:28:53.001Z,14.23
2018-12-13T08:31:22.066Z,12.57
2018-12-13T08:33:51.097Z,11.30
2018-12-13T08:36:20.156Z,11.17
2018-12-13T08:38:49.197Z,10.47
2018-12-13T08:41:18.190Z,11.43
2018-12-13T08:43:47.241Z,10.63
2018-12-13T08:46:16.193Z,11.33
2018-12-13T08:48:45.145Z,11.90
2018-12-13T08:51:14.219Z,11.03
2018-12-13T08:53:43.229Z,12.17
2018-12-13T08:56:12.230Z,11.87
2018-12-13T08:58:41.249Z,11.60
2018-12-13T09:01:10.258Z,12.77
2018-12-13T09:03:39.205Z,11.70
2018-12-13T09:06:08.484Z,11.63
2018-12-13T09:08:37.521Z,11.00
2018-12-13T09:11:06.537Z,11.30
2018-12-13T09:13:35.856Z,9.97
2018-12-13T09:16:04.866Z,9.33
2018-12-13T09:18:33.990Z,8.37
2018-12-13T09:21:03.054Z,9.13
2018-12-13T09:23:32.061Z,8.97
2018-12-13T09:26:01.073Z,8.73
2018-12-13T09:28:30.136Z,8.97
2018-12-13T09:30:59.165Z,10.87
2018-12-13T09:33:28.193Z,11.33
2018-12-13T09:35:57.238Z,11.13
2018-12-13T09:38:27.389Z,11.17
2018-12-13T09:40:55.638Z,11.83
2018-12-13T09:43:24.912Z,10.73
2018-12-13T09:45:53.949Z,11.10
2018-12-13T09:48:23.047Z,10.57
2018-12-13T09:50:52.356Z,11.80
2018-12-13T09:53:21.370Z,12.53
2018-12-13T09:55:50.397Z,12.43
2018-12-13T09:58:19.504Z,11.60
2018-12-13T10:00:48.483Z,12.57
2018-12-13T10:03:17.534Z,12.93
2018-12-13T10:05:46.586Z,12.83
2018-12-13T10:08:15.654Z,11.10
2018-12-13T10:10:44.647Z,11.63
2018-12-13T10:13:13.703Z,12.00
2018-12-13T10:15:42.700Z,10.77
2018-12-13T10:18:11.675Z,12.53
2018-12-13T10:20:40.716Z,12.20
2018-12-13T10:23:09.691Z,9.80
2018-12-13T10:25:38.637Z,10.53
2018-12-13T10:28:07.665Z,10.93
2018-12-13T10:30:36.786Z,10.83
2018-12-13T10:33:05.778Z,10.90
2018-12-13T10:35:35.021Z,10.53
2018-12-13T10:38:04.087Z,9.63
2018-12-13T10:40:33.100Z,10.93
2018-12-13T10:43:02.199Z,12.90
2018-12-13T10:45:31.240Z,13.93
2018-12-13T10:48:00.258Z,13.20
2018-12-13T10:50:29.606Z,13.67
2018-12-13T10:52:58.566Z,12.07
2018-12-13T10:55:27.519Z,12.30
2018-12-13T10:57:56.521Z,13.67
2018-12-13T11:00:30.518Z,14.43
2018-12-13T11:03:36.104Z,13.53
2018-12-13T11:06:05.324Z,14.13
2018-12-13T11:08:34.315Z,14.50
2018-12-13T11:11:03.317Z,13.73
2018-12-13T11:13:32.358Z,12.87
2018-12-13T11:16:01.362Z,12.17
2018-12-13T11:18:30.393Z,13.00
2018-12-13T11:20:59.374Z,12.23
2018-12-13T11:23:28.392Z,12.93
2018-12-13T11:25:57.816Z,13.37
2018-12-13T11:28:37.780Z,11.80
2018-12-13T11:31:06.886Z,9.90
2018-12-13T11:33:35.962Z,10.17
2018-12-13T11:36:04.989Z,10.53
2018-12-13T11:38:34.364Z,10.57
2018-12-13T11:41:03.325Z,7.50
2018-12-13T11:43:32.350Z,9.13
2018-12-13T11:46:01.359Z,7.77
2018-12-13T11:48:30.381Z,9.67
2018-12-13T11:50:59.403Z,10.13
2018-12-13T11:53:28.502Z,11.33
2018-12-13T11:55:57.578Z,10.90
2018-12-13T11:58:26.527Z,11.37
2018-12-13T12:00:55.576Z,12.00
2018-12-13T12:03:24.667Z,12.63
2018-12-13T12:05:53.723Z,11.20
2018-12-13T12:08:22.794Z,10.80
2018-12-13T12:10:51.939Z,11.40
2018-12-13T12:13:20.962Z,11.37
2018-12-13T12:15:50.098Z,13.00
2018-12-13T12:18:19.088Z,12.57
2018-12-13T12:20:48.246Z,16.20
2018-12-13T12:23:17.366Z,15.93
2018-12-13T12:25:46.537Z,16.83
2018-12-13T12:28:15.503Z,15.67
2018-12-13T12:30:44.523Z,16.93
2018-12-13T12:33:13.538Z,13.37
2018-12-13T12:35:42.515Z,13.10
2018-12-13T12:38:11.900Z,13.13
2018-12-13T12:40:40.885Z,13.73
2018-12-13T12:43:09.901Z,12.90
2018-12-13T12:45:39.030Z,11.80
2018-12-13T12:48:08.079Z,10.43
2018-12-13T12:50:37.068Z,12.30
2018-12-13T12:53:06.106Z,13.97
2018-12-13T12:55:35.459Z,14.03
2018-12-13T12:58:04.516Z,13.00
2018-12-13T13:00:33.561Z,11.53
2018-12-13T13:03:02.634Z,10.57
2018-12-13T13:05:31.701Z,10.87
2018-12-13T13:08:00.807Z,12.57
2018-12-13T13:10:29.845Z,12.20
2018-12-13T13:12:58.888Z,12.37
2018-12-13T13:15:27.931Z,12.33
2018-12-13T13:17:57.290Z,10.97
2018-12-13T13:20:26.496Z,11.50
2018-12-13T13:22:55.628Z,11.37
2018-12-13T13:25:24.649Z,12.33
2018-12-13T13:27:53.797Z,11.63
2018-12-13T13:30:22.974Z,12.87
2018-12-13T13:32:52.416Z,11.43
2018-12-13T13:35:21.563Z,11.17
2018-12-13T13:37:51.013Z,11.83
2018-12-13T13:40:20.133Z,13.73
2018-12-13T13:42:49.205Z,12.70
2018-12-13T13:45:18.446Z,12.20
2018-12-13T13:47:47.569Z,11.53
2018-12-13T13:50:16.615Z,11.17
2018-12-13T13:52:45.693Z,10.33
2018-12-13T13:55:14.801Z,11.07
2018-12-13T13:57:43.855Z,12.53
2018-12-13T14:00:13.343Z,13.23
2018-12-13T14:02:42.362Z,12.17
2018-12-13T14:05:11.394Z,12.27
2018-12-13T14:07:40.444Z,13.00
2018-12-13T14:10:09.477Z,12.30
2018-12-13T14:12:38.464Z,13.03
2018-12-13T14:15:08.051Z,12.70
2018-12-13T14:17:37.059Z,13.57
2018-12-13T14:20:06.387Z,12.83
2018-12-13T14:22:35.986Z,14.43
2018-12-13T14:25:08.130Z,14.87
2018-12-13T14:27:37.426Z,15.40
2018-12-13T14:30:06.770Z,14.60
2018-12-13T14:32:35.788Z,13.73
2018-12-13T14:35:05.117Z,11.20
2018-12-13T14:37:34.227Z,8.20
2018-12-13T14:40:03.298Z,5.10
2018-12-13T14:42:32.344Z,3.03
2018-12-13T14:45:01.445Z,2.60
2018-12-13T14:47:30.464Z,2.00
2018-12-13T14:49:59.536Z,1.70
2018-12-13T14:52:29.010Z,1.90
2018-12-13T14:54:58.439Z,1.50
2018-12-13T14:57:27.500Z,1.77
2018-12-13T14:59:56.544Z,1.87
2018-12-13T15:02:25.903Z,1.57
2018-12-13T15:04:55.338Z,1.83
2018-12-13T15:07:24.430Z,1.67
2018-12-13T15:09:53.566Z,1.90
2018-12-13T15:12:22.668Z,2.03
2018-12-13T15:14:51.714Z,2.40
2018-12-13T15:17:20.774Z,2.40
2018-12-13T15:19:50.275Z,2.10
2018-12-13T15:22:19.283Z,2.37
2018-12-13T15:24:48.330Z,4.63
2018-12-13T15:27:17.722Z,8.33
2018-12-13T15:29:46.754Z,7.00
2018-12-13T15:32:15.815Z,5.13
2018-12-13T15:34:44.915Z,4.57
2018-12-13T15:37:13.962Z,5.30
2018-12-13T15:39:43.038Z,5.37
2018-12-13T15:42:12.499Z,5.20
2018-12-13T15:44:41.605Z,5.77
2018-12-13T15:47:10.671Z,17.67
2018-12-13T15:49:39.894Z,24.50
2018-12-13T15:52:08.923Z,16.40
2018-12-13T15:54:37.945Z,22.53
2018-12-13T15:57:06.966Z,25.80
2018-12-13T15:59:36.033Z,45.83
2018-12-13T16:02:05.392Z,40.23
2018-12-13T16:04:34.970Z,31.63
2018-12-13T16:07:04.051Z,33.43
2018-12-13T16:09:33.066Z,27.63
2018-12-13T16:12:02.206Z,28.50
2018-12-13T16:14:31.457Z,25.70
2018-12-13T16:17:00.572Z,32.43
2018-12-13T16:19:29.636Z,32.23
2018-12-13T16:21:58.634Z,30.33
2018-12-13T16:24:27.664Z,29.23
2018-12-13T16:26:56.788Z,30.53
2018-12-13T16:29:26.866Z,26.67
2018-12-13T16:31:55.894Z,29.67
2018-12-13T16:34:25.093Z,29.53
2018-12-13T16:36:54.130Z,28.07
2018-12-13T16:39:23.282Z,28.07
2018-12-13T16:41:52.541Z,27.37
2018-12-13T16:44:21.732Z,24.33
2018-12-13T16:46:50.816Z,27.87
2018-12-13T16:49:19.912Z,27.07
2018-12-13T16:51:48.914Z,28.93
2018-12-13T16:54:17.976Z,27.10
2018-12-13T16:56:47.018Z,27.50
2018-12-13T16:59:16.092Z,26.87
2018-12-13T17:01:45.176Z,30.43
2018-12-13T17:04:14.255Z,31.07
2018-12-13T17:06:43.302Z,32.17
2018-12-13T17:09:12.348Z,36.20
2018-12-13T17:11:41.438Z,34.97
2018-12-13T17:14:10.642Z,37.87
2018-12-13T17:16:39.734Z,33.53
2018-12-13T17:19:08.865Z,32.97
2018-12-13T17:21:38.292Z,37.67
2018-12-13T17:24:07.449Z,29.30
2018-12-13T17:26:36.653Z,13.77
2018-12-13T17:29:05.734Z,26.30
2018-12-13T17:31:34.775Z,26.33
2018-12-13T17:34:03.898Z,25.67
2018-12-13T17:36:33.115Z,24.30
2018-12-13T17:39:02.441Z,27.40
2018-12-13T17:41:31.852Z,28.10
2018-12-13T17:44:00.924Z,29.43
2018-12-13T17:46:29.940Z,30.53
2018-12-13T17:48:59.539Z,82.10
2018-12-13T17:51:28.582Z,133.20
2018-12-13T17:53:57.702Z,79.47
2018-12-13T17:56:27.113Z,97.77
2018-12-13T17:58:56.147Z,54.23
2018-12-13T18:01:25.262Z,38.97
2018-12-13T18:03:54.363Z,39.87
2018-12-13T18:06:23.444Z,36.10
2018-12-13T18:08:52.536Z,34.40
2018-12-13T18:11:21.736Z,31.63
2018-12-13T18:13:50.839Z,31.10
2018-12-13T18:16:19.904Z,25.53
2018-12-13T18:18:49.127Z,26.47
2018-12-13T18:21:18.196Z,29.50
2018-12-13T18:23:47.920Z,28.53
2018-12-13T18:26:17.034Z,26.30
2018-12-13T18:28:46.058Z,32.40
2018-12-13T18:31:15.225Z,32.63
2018-12-13T18:33:44.431Z,37.77
2018-12-13T18:36:13.470Z,41.50
2018-12-13T18:38:42.520Z,38.63
2018-12-13T18:41:11.651Z,35.30
2018-12-13T18:43:40.769Z,19.13
2018-12-13T18:46:09.986Z,26.40
2018-12-13T18:48:39.086Z,28.77
2018-12-13T18:51:08.220Z,33.27
2018-12-13T18:53:37.409Z,32.20
2018-12-13T18:56:06.463Z,32.40
2018-12-13T18:58:35.546Z,31.03
2018-12-13T19:01:04.625Z,33.33
2018-12-13T19:03:33.997Z,29.73
2018-12-13T19:06:03.083Z,23.73
2018-12-13T19:08:32.385Z,21.60
2018-12-13T19:11:01.843Z,19.27
2018-12-13T19:13:30.962Z,20.90
2018-12-13T19:16:00.049Z,20.93
2018-12-13T19:18:29.169Z,20.97
2018-12-13T19:20:58.239Z,20.10
2018-12-13T19:23:27.301Z,20.23
2018-12-13T19:25:56.388Z,19.23
2018-12-13T19:28:25.468Z,19.37
2018-12-13T19:30:54.675Z,20.47
2018-12-13T19:33:23.828Z,21.00
2018-12-13T19:35:52.877Z,19.13
2018-12-13T19:38:21.906Z,18.57
2018-12-13T19:40:51.031Z,18.70
2018-12-13T19:43:20.364Z,20.57
2018-12-13T19:45:49.558Z,21.50
2018-12-13T19:48:18.601Z,21.43
2018-12-13T19:50:47.767Z,25.87
2018-12-13T19:53:16.883Z,23.90
2018-12-13T19:55:46.028Z,24.20
2018-12-13T19:58:15.226Z,25.43
2018-12-13T20:00:44.316Z,26.13
2018-12-13T20:03:13.510Z,22.67
2018-12-13T20:05:42.542Z,25.03
2018-12-13T20:08:11.619Z,23.60
2018-12-13T20:10:41.085Z,24.00
2018-12-13T20:13:10.142Z,22.47
2018-12-13T20:15:39.364Z,25.43
2018-12-13T20:18:08.604Z,26.40
2018-12-13T20:20:37.693Z,30.53
2018-12-13T20:23:06.742Z,33.87
2018-12-13T20:25:35.889Z,33.23
2018-12-13T20:28:05.082Z,34.03
2018-12-13T20:30:34.539Z,34.83
2018-12-13T20:33:03.782Z,34.27
2018-12-13T20:35:32.904Z,35.53
2018-12-13T20:38:02.206Z,36.23
2018-12-13T20:40:31.318Z,34.80
2018-12-13T20:43:00.518Z,35.13
2018-12-13T20:45:29.619Z,35.23
2018-12-13T20:47:58.963Z,41.00
2018-12-13T20:50:28.050Z,33.97
2018-12-13T20:52:57.253Z,35.67
2018-12-13T20:55:26.638Z,36.40
2018-12-13T20:57:55.902Z,36.47
2018-12-13T21:00:25.061Z,37.37
2018-12-13T21:02:54.339Z,35.93
2018-12-13T21:05:23.443Z,35.80
2018-12-13T21:07:52.581Z,35.47
2018-12-13T21:10:21.964Z,35.70
2018-12-13T21:12:51.041Z,35.27
2018-12-13T21:15:20.271Z,36.27
2018-12-13T21:17:49.434Z,34.93
2018-12-13T21:20:18.641Z,35.87
2018-12-13T21:22:47.830Z,33.17
2018-12-13T21:25:16.873Z,36.33
2018-12-13T21:27:45.996Z,36.73
2018-12-13T21:30:15.065Z,37.03
2018-12-13T21:32:44.254Z,37.20
2018-12-13T21:35:13.392Z,36.47
2018-12-13T21:37:42.461Z,37.33
2018-12-13T21:40:11.570Z,39.30
2018-12-13T21:42:40.632Z,38.33
2018-12-13T21:45:09.889Z,37.20
2018-12-13T21:47:39.056Z,38.53
2018-12-13T21:50:09.131Z,37.10
2018-12-13T21:52:38.218Z,37.87
2018-12-13T21:55:07.384Z,36.90
2018-12-13T21:57:36.830Z,38.77
2018-12-13T22:00:08.128Z,39.77
2018-12-13T22:02:37.789Z,41.87
2018-12-13T22:05:07.009Z,40.17
2018-12-13T22:07:36.231Z,40.10
2018-12-13T22:10:06.328Z,39.37
2018-12-13T22:12:35.449Z,39.63
2018-12-13T22:15:04.610Z,40.67
2018-12-13T22:17:33.865Z,41.07
2018-12-13T22:20:02.870Z,41.23
2018-12-13T22:22:31.880Z,39.00
2018-12-13T22:25:01.144Z,39.77
2018-12-13T22:27:30.206Z,43.93
2018-12-13T22:29:59.217Z,44.10
2018-12-13T22:32:28.414Z,44.33
2018-12-13T22:34:57.606Z,43.37
2018-12-13T22:37:26.706Z,45.83
2018-12-13T22:39:55.811Z,43.90
2018-12-13T22:42:24.793Z,41.63
2018-12-13T22:44:53.818Z,43.87
2018-12-13T22:47:22.908Z,44.90
2018-12-13T22:49:51.898Z,45.37
2018-12-13T22:52:20.912Z,44.37
2018-12-13T22:54:49.999Z,44.50
2018-12-13T22:57:18.987Z,42.63
2018-12-13T22:59:48.199Z,41.83
2018-12-13T23:02:17.819Z,39.20
2018-12-13T23:04:47.021Z,37.33
2018-12-13T23:07:16.242Z,41.73
2018-12-13T23:09:45.542Z,41.10
2018-12-13T23:12:14.707Z,40.47
2018-12-13T23:14:44.057Z,41.57
2018-12-13T23:17:13.490Z,39.63
2018-12-13T23:19:42.675Z,40.33
2018-12-13T23:22:11.900Z,38.50
2018-12-13T23:24:41.143Z,38.30
2018-12-13T23:27:10.335Z,40.27
2018-12-13T23:29:39.499Z,40.67
2018-12-13T23:32:08.984Z,39.30
2018-12-13T23:34:38.192Z,38.87
2018-12-13T23:37:07.465Z,36.23
2018-12-13T23:39:37.017Z,33.53
2018-12-13T23:42:06.203Z,32.93
2018-12-13T23:44:35.364Z,33.03
2018-12-13T23:47:04.804Z,32.63
2018-12-13T23:49:34.062Z,29.80
2018-12-13T23:52:03.386Z,30.80
2018-12-13T23:54:32.714Z,29.30
2018-12-13T23:57:01.946Z,25.23
2018-12-13T23:59:31.199Z,23.10
